Time;durP1;ratioP1;P1;durP2;ratioP2;P2;SDS_P1;SDS_P2;PMS_P1;PMS_P2;Temp;Humidity;BMP_temperature;BMP_pressure;BME280_temperature;BME280_humidity;BME280_pressure;Samples;Min_cycle;Max_cycle;Signal;HPM_P1;HPM_P2
2021/11/04 00:20:56;;;;;;;25.55;10.45;;;;;;;;;;4810782;29;20046;-95
2021/11/04 00:23:44;;;;;;;20.58;10.98;;;;;;;;;;4796082;29;20058;-94
2021/11/04 00:26:53;;;;;;;19.70;10.45;;;;;;;;;;4799120;29;20569;-96
2021/11/04 00:30:09;;;;;;;23.65;10.13;;;;;;;;;;4808808;29;20049;-96
2021/11/04 00:33:21;;;;;;;23.05;11.10;;;;;;;;;;4769560;30;20153;-96
2021/11/04 00:36:09;;;;;;;21.65;11.32;;;;;;;;;;4806799;29;20087;-95
2021/11/04 00:39:08;;;;;;;19.98;10.63;;;;;;;;;;4798871;29;20038;-96
2021/11/04 00:48:16;;;;;;;22.05;10.18;;;;;;;;;;4814040;29;20046;-96
2021/11/04 01:06:20;;;;;;;24.33;11.15;;;;;;;;;;3147483;23;20255;-86
2021/11/04 01:21:14;;;;;;;17.60;9.90;;;;;;;;;;3080562;23;21085;-94
2021/11/04 01:29:59;;;;;;;20.48;9.57;;;;;;;;;;5109742;23;20057;-96
2021/11/04 02:13:10;;;;;;;16.65;9.27;;;;;;;;;;4873785;23;20060;-94
2021/11/04 02:15:42;;;;;;;17.35;9.48;;;;;;;;;;4861938;29;20054;-96
2021/11/04 02:27:52;;;;;;;;;;;;;;;;;;;;;
2021/11/04 02:30:37;;;;;;;18.20;8.63;;;;;;;;;;4908382;29;20119;-96
2021/11/04 02:33:44;;;;;;;18.45;9.55;;;;;;;;;;5025912;23;20120;-96
2021/11/04 02:48:50;;;;;;;22.92;10.48;;;;;;;;;;4912967;24;20072;-96
2021/11/04 02:51:37;;;;;;;23.40;8.40;;;;;;;;;;4891816;29;20055;-92
2021/11/04 03:03:46;;;;;;;18.58;9.52;;;;;;;;;;4852279;29;20660;-95
2021/11/04 03:12:05;;;;;;;17.70;8.85;;;;;;;;;;4886144;29;20051;-94
2021/11/04 03:20:42;;;;;;;19.17;9.38;;;;;;;;;;4852908;29;20032;-94
2021/11/04 03:23:50;;;;;;;19.00;9.20;;;;;;;;;;4853846;29;20037;-94
2021/11/04 03:26:59;;;;;;;17.88;8.63;;;;;;;;;;4829022;29;20037;-94
2021/11/04 03:29:42;;;;;;;16.73;8.45;;;;;;;;;;4837086;29;20046;-93
2021/11/04 03:32:45;;;;;;;14.45;8.35;;;;;;;;;;4904894;29;20530;-93
2021/11/04 03:35:25;;;;;;;14.35;7.65;;;;;;;;;;4911586;29;20049;-93
2021/11/04 03:38:12;;;;;;;14.25;8.02;;;;;;;;;;4915113;29;20029;-94
2021/11/04 03:40:39;;;;;;;18.90;8.10;;;;;;;;;;4894902;29;20036;-94
2021/11/04 03:43:32;;;;;;;17.02;8.93;;;;;;;;;;4901153;29;20032;-96
2021/11/04 03:45:59;;;;;;;18.65;9.05;;;;;;;;;;4869391;29;20051;-96
2021/11/04 03:48:26;;;;;;;22.02;8.90;;;;;;;;;;4885528;29;20040;-94
2021/11/04 03:50:55;;;;;;;16.85;8.65;;;;;;;;;;4901488;29;20108;-93
2021/11/04 03:53:26;;;;;;;18.83;8.07;;;;;;;;;;4884550;29;20039;-94
2021/11/04 03:56:33;;;;;;;13.32;8.02;;;;;;;;;;4901498;29;20044;-94
2021/11/04 03:59:17;;;;;;;19.08;8.50;;;;;;;;;;4901019;29;20040;-96
2021/11/04 04:01:45;;;;;;;14.30;8.13;;;;;;;;;;4885804;29;20029;-93
2021/11/04 04:04:37;;;;;;;16.95;8.68;;;;;;;;;;4900989;29;20039;-91
2021/11/04 04:07:27;;;;;;;20.25;8.38;;;;;;;;;;4884498;29;20048;-94
2021/11/04 04:10:06;;;;;;;16.52;8.55;;;;;;;;;;4900244;29;20043;-93
2021/11/04 04:12:41;;;;;;;16.75;8.45;;;;;;;;;;4868199;29;20116;-93
2021/11/04 04:15:09;;;;;;;16.95;7.97;;;;;;;;;;4900063;29;20438;-96
2021/11/04 04:17:36;;;;;;;21.75;8.75;;;;;;;;;;4899747;29;20409;-92
2021/11/04 04:20:03;;;;;;;16.85;8.35;;;;;;;;;;4884000;29;20036;-93
2021/11/04 04:22:29;;;;;;;20.33;8.25;;;;;;;;;;4883236;29;20032;-93
2021/11/04 04:25:00;;;;;;;16.75;7.70;;;;;;;;;;4883381;29;20119;-94
2021/11/04 04:27:27;;;;;;;19.25;9.32;;;;;;;;;;4867662;29;20071;-93
2021/11/04 04:29:53;;;;;;;12.90;7.75;;;;;;;;;;4884028;29;20033;-96
2021/11/04 04:32:40;;;;;;;13.88;8.00;;;;;;;;;;4885440;29;20036;-94
2021/11/04 04:35:06;;;;;;;15.40;7.35;;;;;;;;;;4884978;29;20045;-95
2021/11/04 04:37:42;;;;;;;17.70;8.13;;;;;;;;;;4901081;29;20049;-94
2021/11/04 04:40:09;;;;;;;18.83;8.98;;;;;;;;;;4901602;29;20033;-94
2021/11/04 04:42:37;;;;;;;14.07;7.15;;;;;;;;;;4885305;29;20036;-94
2021/11/04 04:45:28;;;;;;;16.98;8.77;;;;;;;;;;4888196;29;20044;-95
2021/11/04 04:48:14;;;;;;;18.70;8.15;;;;;;;;;;4902891;29;20040;-95
2021/11/04 04:50:46;;;;;;;18.40;7.47;;;;;;;;;;4903645;29;20060;-92
2021/11/04 04:53:12;;;;;;;16.08;8.00;;;;;;;;;;4868758;29;20037;-95
2021/11/04 04:55:39;;;;;;;17.45;8.00;;;;;;;;;;4869575;29;20041;-94
2021/11/04 04:58:06;;;;;;;16.92;7.75;;;;;;;;;;4883808;29;20463;-96
2021/11/04 05:00:39;;;;;;;14.82;6.70;;;;;;;;;;4900951;29;20115;-93
2021/11/04 05:03:06;;;;;;;15.68;7.55;;;;;;;;;;4883280;29;20059;-94
2021/11/04 05:05:51;;;;;;;15.27;7.95;;;;;;;;;;4899938;29;20067;-93
2021/11/04 05:08:22;;;;;;;16.50;8.05;;;;;;;;;;4900578;29;20512;-93
2021/11/04 05:10:50;;;;;;;13.45;7.45;;;;;;;;;;4883706;29;20478;-95
2021/11/04 05:13:35;;;;;;;16.50;7.78;;;;;;;;;;4900240;29;20029;-94
2021/11/04 05:16:03;;;;;;;18.33;8.80;;;;;;;;;;4900488;29;20509;-91
2021/11/04 05:18:30;;;;;;;15.77;9.15;;;;;;;;;;4883195;29;20024;-93
2021/11/04 05:21:00;;;;;;;18.58;8.65;;;;;;;;;;4884032;29;20497;-94
2021/11/04 05:23:27;;;;;;;14.45;7.38;;;;;;;;;;4868247;29;20025;-96
2021/11/04 05:26:21;;;;;;;15.20;7.38;;;;;;;;;;4884765;29;20053;-96
2021/11/04 05:28:48;;;;;;;17.63;8.15;;;;;;;;;;4885088;29;20077;-96
2021/11/04 05:31:14;;;;;;;15.65;7.68;;;;;;;;;;4883840;29;20048;-96
2021/11/04 05:33:40;;;;;;;19.08;8.15;;;;;;;;;;4868566;29;20108;-93
2021/11/04 05:36:11;;;;;;;14.35;6.78;;;;;;;;;;4889086;29;20041;-94
2021/11/04 05:38:37;;;;;;;17.73;6.85;;;;;;;;;;4883684;29;20045;-89
2021/11/04 05:41:04;;;;;;;12.75;7.13;;;;;;;;;;4903622;29;20029;-95
2021/11/04 05:43:30;;;;;;;13.68;7.35;;;;;;;;;;4886230;29;20052;-96
2021/11/04 05:45:56;;;;;;;15.70;7.20;;;;;;;;;;4886557;29;20032;-94
2021/11/04 05:48:22;;;;;;;13.75;6.30;;;;;;;;;;4885854;29;20048;-94
2021/11/04 05:50:50;;;;;;;14.23;6.78;;;;;;;;;;4886524;29;20040;-95
2021/11/04 05:53:16;;;;;;;15.13;8.15;;;;;;;;;;4870143;29;20040;-92
2021/11/04 05:55:42;;;;;;;22.55;8.50;;;;;;;;;;4885046;29;20052;-92
2021/11/04 05:58:09;;;;;;;23.10;8.15;;;;;;;;;;4885744;29;20192;-92
2021/11/04 06:00:35;;;;;;;17.17;7.18;;;;;;;;;;4886293;29;20460;-94
2021/11/04 06:03:02;;;;;;;15.60;6.85;;;;;;;;;;4885429;29;20028;-93
2021/11/04 06:05:28;;;;;;;15.02;6.93;;;;;;;;;;4885239;29;20035;-92
2021/11/04 06:07:54;;;;;;;13.40;6.70;;;;;;;;;;4884803;29;20123;-88
2021/11/04 06:10:20;;;;;;;17.88;7.47;;;;;;;;;;4880529;29;20494;-81
2021/11/04 06:12:47;;;;;;;12.88;6.88;;;;;;;;;;4866489;29;20036;-82
2021/11/04 06:15:13;;;;;;;15.55;7.03;;;;;;;;;;4870139;29;20040;-82
2021/11/04 06:17:39;;;;;;;10.35;5.97;;;;;;;;;;4883865;29;20048;-83
2021/11/04 06:20:06;;;;;;;13.27;6.88;;;;;;;;;;4883692;29;20028;-82
2021/11/04 06:22:32;;;;;;;12.73;6.53;;;;;;;;;;4883394;29;20059;-83
2021/11/04 06:24:58;;;;;;;12.80;6.28;;;;;;;;;;4900358;29;20396;-82
2021/11/04 06:27:25;;;;;;;13.25;6.75;;;;;;;;;;4877915;29;20021;-83
2021/11/04 06:29:51;;;;;;;14.82;6.57;;;;;;;;;;4881519;29;20093;-83
2021/11/04 06:32:17;;;;;;;15.15;7.10;;;;;;;;;;4864611;29;20445;-83
2021/11/04 06:34:43;;;;;;;15.63;7.28;;;;;;;;;;4864412;29;20029;-83
2021/11/04 06:37:09;;;;;;;17.38;8.07;;;;;;;;;;4864641;29;20082;-82
2021/11/04 06:39:35;;;;;;;16.70;7.43;;;;;;;;;;4864809;29;20059;-82
2021/11/04 06:42:01;;;;;;;12.68;6.25;;;;;;;;;;4864775;29;20033;-82
2021/11/04 06:44:28;;;;;;;17.42;6.80;;;;;;;;;;4864495;29;20059;-83
2021/11/04 06:46:56;;;;;;;15.25;6.45;;;;;;;;;;4864376;29;20048;-82
2021/11/04 06:49:25;;;;;;;12.13;6.50;;;;;;;;;;4881326;29;20108;-82
2021/11/04 06:51:51;;;;;;;16.05;7.15;;;;;;;;;;4864269;29;20036;-82
2021/11/04 06:54:18;;;;;;;13.73;6.78;;;;;;;;;;4880810;29;20403;-81
2021/11/04 06:56:45;;;;;;;12.27;6.13;;;;;;;;;;4864238;29;20029;-81
2021/11/04 06:59:14;;;;;;;13.10;7.05;;;;;;;;;;4881118;29;20057;-81
2021/11/04 07:01:41;;;;;;;13.63;7.32;;;;;;;;;;4864231;29;20036;-82
2021/11/04 07:04:09;;;;;;;13.52;6.38;;;;;;;;;;4870843;29;20029;-82
2021/11/04 07:06:44;;;;;;;11.88;6.50;;;;;;;;;;4899293;29;20064;-81
2021/11/04 07:09:10;;;;;;;12.05;7.20;;;;;;;;;;4882719;29;20024;-81
2021/11/04 07:11:36;;;;;;;14.82;7.22;;;;;;;;;;4899231;29;20085;-81
2021/11/04 07:14:03;;;;;;;11.30;6.47;;;;;;;;;;4898986;29;20084;-81
2021/11/04 07:16:29;;;;;;;16.02;7.03;;;;;;;;;;4882295;29;20111;-81
2021/11/04 07:18:57;;;;;;;12.65;6.65;;;;;;;;;;4899064;29;20028;-81
2021/11/04 07:21:32;;;;;;;18.00;9.60;;;;;;;;;;4882425;29;20486;-82
2021/11/04 07:24:02;;;;;;;15.27;8.40;;;;;;;;;;4882226;29;20062;-81
2021/11/04 07:26:36;;;;;;;12.52;7.10;;;;;;;;;;4899228;29;20119;-81
2021/11/04 07:29:13;;;;;;;13.02;7.82;;;;;;;;;;4882240;29;20471;-82
2021/11/04 07:31:40;;;;;;;13.20;6.85;;;;;;;;;;4882383;29;20478;-81
2021/11/04 07:34:08;;;;;;;12.63;7.40;;;;;;;;;;4898969;29;20021;-80
2021/11/04 07:36:36;;;;;;;16.30;7.22;;;;;;;;;;4898811;29;20107;-81
2021/11/04 07:39:03;;;;;;;12.93;6.85;;;;;;;;;;4881967;29;20056;-83
2021/11/04 07:41:30;;;;;;;12.48;7.13;;;;;;;;;;4881989;29;20525;-80
2021/11/04 07:44:01;;;;;;;15.63;7.20;;;;;;;;;;4882049;29;20478;-81
2021/11/04 07:46:27;;;;;;;12.57;7.78;;;;;;;;;;4881740;29;20123;-81
2021/11/04 07:48:54;;;;;;;9.75;6.72;;;;;;;;;;4898569;29;20032;-81
2021/11/04 07:51:20;;;;;;;11.82;6.75;;;;;;;;;;4881927;29;20379;-81
2021/11/04 07:53:46;;;;;;;14.07;6.82;;;;;;;;;;4898466;29;20381;-81
2021/11/04 07:56:12;;;;;;;12.57;6.85;;;;;;;;;;4881520;29;20143;-81
2021/11/04 07:58:39;;;;;;;10.25;5.93;;;;;;;;;;4881294;29;20084;-82
2021/11/04 08:01:05;;;;;;;9.63;6.05;;;;;;;;;;4898483;29;20036;-81
2021/11/04 08:03:32;;;;;;;11.43;5.80;;;;;;;;;;4879489;29;20386;-81
2021/11/04 08:05:58;;;;;;;12.65;6.22;;;;;;;;;;4863035;29;20036;-81
2021/11/04 08:08:24;;;;;;;10.48;5.93;;;;;;;;;;4863199;29;20037;-81
2021/11/04 08:10:54;;;;;;;11.98;6.10;;;;;;;;;;4879071;29;20033;-81
2021/11/04 08:13:20;;;;;;;12.07;6.00;;;;;;;;;;4879661;29;20363;-82
2021/11/04 08:15:46;;;;;;;12.25;6.18;;;;;;;;;;4863115;29;20486;-82
2021/11/04 08:18:14;;;;;;;12.48;5.60;;;;;;;;;;4863116;29;20115;-82
2021/11/04 08:20:40;;;;;;;8.68;5.53;;;;;;;;;;4862837;29;20041;-82
2021/11/04 08:23:09;;;;;;;11.52;6.72;;;;;;;;;;4863106;29;20041;-81
2021/11/04 08:25:36;;;;;;;12.07;6.03;;;;;;;;;;4862774;29;20040;-81
2021/11/04 08:28:02;;;;;;;8.77;6.00;;;;;;;;;;4863046;29;20032;-82
2021/11/04 08:30:28;;;;;;;10.95;6.88;;;;;;;;;;4879695;29;20401;-82
2021/11/04 08:32:54;;;;;;;9.82;6.05;;;;;;;;;;4879387;29;20026;-81
2021/11/04 08:35:20;;;;;;;9.32;6.47;;;;;;;;;;4862575;29;20439;-82
2021/11/04 08:37:46;;;;;;;10.50;6.90;;;;;;;;;;4862734;29;20037;-81
2021/11/04 08:40:13;;;;;;;9.50;6.80;;;;;;;;;;4862570;29;20411;-82
2021/11/04 08:42:39;;;;;;;9.57;7.65;;;;;;;;;;4862696;29;20036;-82
2021/11/04 08:45:06;;;;;;;13.45;8.73;;;;;;;;;;4862788;29;20033;-81
2021/11/04 08:47:32;;;;;;;13.35;8.15;;;;;;;;;;4862485;29;20059;-81
2021/11/04 08:49:59;;;;;;;11.95;7.57;;;;;;;;;;4879290;29;20029;-82
2021/11/04 08:52:26;;;;;;;9.93;6.22;;;;;;;;;;4862659;29;20030;-82
2021/11/04 08:54:52;;;;;;;14.27;7.70;;;;;;;;;;4862621;29;20037;-81
2021/11/04 08:57:19;;;;;;;11.68;7.35;;;;;;;;;;4862562;29;20044;-82
2021/11/04 08:59:45;;;;;;;12.15;8.02;;;;;;;;;;4862930;29;20056;-81
2021/11/04 09:02:15;;;;;;;12.93;7.38;;;;;;;;;;4862596;29;20395;-82
2021/11/04 09:04:42;;;;;;;12.27;7.95;;;;;;;;;;4873795;29;20034;-82
2021/11/04 09:07:10;;;;;;;14.90;8.75;;;;;;;;;;4881390;29;20386;-82
2021/11/04 09:09:36;;;;;;;13.07;6.35;;;;;;;;;;4898387;29;20020;-82
2021/11/04 09:12:02;;;;;;;11.60;6.75;;;;;;;;;;4884856;29;20028;-82
2021/11/04 09:14:28;;;;;;;13.20;6.05;;;;;;;;;;4884703;29;20044;-82
2021/11/04 09:16:54;;;;;;;10.30;6.43;;;;;;;;;;4884606;29;20028;-82
2021/11/04 09:19:20;;;;;;;11.52;6.25;;;;;;;;;;4884517;29;20040;-82
2021/11/04 09:21:46;;;;;;;11.10;6.50;;;;;;;;;;4884359;29;20025;-82
2021/11/04 09:24:13;;;;;;;9.68;5.25;;;;;;;;;;4901132;29;20475;-82
2021/11/04 09:26:40;;;;;;;8.43;5.53;;;;;;;;;;4884313;29;20541;-82
2021/11/04 09:29:06;;;;;;;9.32;5.95;;;;;;;;;;4884306;29;20033;-82
2021/11/04 09:31:33;;;;;;;9.57;5.53;;;;;;;;;;4901607;29;20048;-82
2021/11/04 09:33:59;;;;;;;12.13;6.13;;;;;;;;;;4884521;29;20080;-81
2021/11/04 09:36:28;;;;;;;13.00;6.32;;;;;;;;;;4884349;29;20120;-82
2021/11/04 09:38:54;;;;;;;8.27;5.95;;;;;;;;;;4884099;29;20543;-82
2021/11/04 09:41:21;;;;;;;10.32;6.88;;;;;;;;;;4884210;29;20031;-82
2021/11/04 09:43:47;;;;;;;10.07;7.13;;;;;;;;;;4883874;29;20036;-81
2021/11/04 09:46:14;;;;;;;8.40;5.85;;;;;;;;;;4884175;29;20032;-82
2021/11/04 09:48:40;;;;;;;8.80;5.45;;;;;;;;;;4866026;29;20045;-83
2021/11/04 09:51:07;;;;;;;14.60;5.00;;;;;;;;;;4882607;29;20029;-82
2021/11/04 09:53:33;;;;;;;8.55;4.78;;;;;;;;;;4882033;29;20036;-82
2021/11/04 09:56:00;;;;;;;5.05;3.20;;;;;;;;;;4865361;29;20502;-83
2021/11/04 09:58:26;;;;;;;2.80;1.60;;;;;;;;;;4865627;29;20501;-84
2021/11/04 10:00:52;;;;;;;2.30;0.90;;;;;;;;;;4865401;29;20025;-83
2021/11/04 10:03:18;;;;;;;1.67;0.80;;;;;;;;;;4882078;29;20044;-83
2021/11/04 10:05:48;;;;;;;1.27;0.63;;;;;;;;;;4865358;29;20061;-83
2021/11/04 10:08:16;;;;;;;1.10;0.47;;;;;;;;;;4865008;29;20038;-83
2021/11/04 10:10:43;;;;;;;3.13;0.80;;;;;;;;;;4882039;29;20037;-82
2021/11/04 10:13:10;;;;;;;0.65;0.30;;;;;;;;;;4882531;29;20372;-82
2021/11/04 10:15:38;;;;;;;1.30;0.40;;;;;;;;;;4881883;29;20491;-82
2021/11/04 10:18:10;;;;;;;3.13;0.30;;;;;;;;;;4864981;29;20363;-81
2021/11/04 10:20:36;;;;;;;1.10;0.25;;;;;;;;;;4864848;29;20029;-82
2021/11/04 10:23:07;;;;;;;0.47;0.20;;;;;;;;;;4865264;29;20025;-83
2021/11/04 10:25:34;;;;;;;6.72;0.30;;;;;;;;;;4881952;29;20040;-83
2021/11/04 10:28:01;;;;;;;0.50;0.20;;;;;;;;;;4865158;29;20530;-83
2021/11/04 10:30:36;;;;;;;0.50;0.20;;;;;;;;;;4864939;29;20029;-82
2021/11/04 10:33:17;;;;;;;0.38;0.10;;;;;;;;;;4881699;29;20037;-83
2021/11/04 10:35:43;;;;;;;0.43;0.13;;;;;;;;;;4865091;29;20407;-84
2021/11/04 10:38:09;;;;;;;0.30;0.10;;;;;;;;;;4864896;29;20059;-82
2021/11/04 10:40:35;;;;;;;0.17;0.10;;;;;;;;;;4864712;29;20037;-82
2021/11/04 10:43:02;;;;;;;0.30;0.17;;;;;;;;;;4864933;29;20028;-83
2021/11/04 10:45:29;;;;;;;0.15;0.10;;;;;;;;;;4864833;29;20033;-83
2021/11/04 10:48:14;;;;;;;1.27;0.40;;;;;;;;;;4864400;29;20060;-83
2021/11/04 10:50:41;;;;;;;0.47;0.10;;;;;;;;;;4864363;29;20142;-82
2021/11/04 10:53:08;;;;;;;1.50;0.63;;;;;;;;;;4864412;29;20029;-83
2021/11/04 10:55:34;;;;;;;0.22;0.10;;;;;;;;;;4881143;29;20033;-83
2021/11/04 10:58:07;;;;;;;1.38;0.90;;;;;;;;;;4881156;29;20506;-83
2021/11/04 11:00:39;;;;;;;0.75;0.30;;;;;;;;;;4864157;29;20036;-83
2021/11/04 11:03:05;;;;;;;1.80;1.30;;;;;;;;;;4864288;29;20463;-82
2021/11/04 11:05:33;;;;;;;3.28;0.70;;;;;;;;;;4864233;29;20120;-83
2021/11/04 11:07:59;;;;;;;1.20;0.22;;;;;;;;;;4864201;29;20153;-83
2021/11/04 11:10:25;;;;;;;1.55;0.20;;;;;;;;;;4864320;29;20032;-83
2021/11/04 11:12:51;;;;;;;0.43;0.10;;;;;;;;;;4864279;29;20035;-82
2021/11/04 11:15:17;;;;;;;3.70;2.03;;;;;;;;;;4865314;29;20049;-82
2021/11/04 11:17:45;;;;;;;3.85;2.22;;;;;;;;;;4864403;29;20048;-83
2021/11/04 11:20:12;;;;;;;3.85;1.58;;;;;;;;;;4880486;29;20033;-82
2021/11/04 11:22:41;;;;;;;2.00;0.95;;;;;;;;;;4863885;29;20037;-81
2021/11/04 11:25:07;;;;;;;0.90;0.50;;;;;;;;;;4864127;29;20455;-81
2021/11/04 11:27:33;;;;;;;0.65;0.32;;;;;;;;;;4864039;29;20505;-82
2021/11/04 11:29:59;;;;;;;0.65;0.28;;;;;;;;;;4863955;29;20076;-82
2021/11/04 11:32:27;;;;;;;4.10;0.50;;;;;;;;;;4863074;29;20479;-82
2021/11/04 11:35:16;;;;;;;0.55;0.20;;;;;;;;;;4863143;29;20045;-82
2021/11/04 11:38:01;;;;;;;0.20;0.10;;;;;;;;;;4863716;29;20112;-82
2021/11/04 11:40:28;;;;;;;0.28;0.10;;;;;;;;;;4863593;29;20033;-82
2021/11/04 11:43:14;;;;;;;0.30;0.10;;;;;;;;;;4863719;29;20032;-82
2021/11/04 11:45:42;;;;;;;1.52;0.10;;;;;;;;;;4863497;29;20037;-82
2021/11/04 11:48:19;;;;;;;0.60;0.15;;;;;;;;;;4877234;29;20048;-82
2021/11/04 11:50:46;;;;;;;2.95;0.13;;;;;;;;;;4881803;29;20060;-82
2021/11/04 11:53:40;;;;;;;0.98;0.20;;;;;;;;;;4882234;29;20063;-82
2021/11/04 11:56:20;;;;;;;0.28;0.13;;;;;;;;;;4882102;29;20524;-84
2021/11/04 11:58:48;;;;;;;0.30;0.10;;;;;;;;;;4881853;29;20067;-82
2021/11/04 12:01:20;;;;;;;0.30;0.20;;;;;;;;;;4898682;29;20028;-82
2021/11/04 12:03:54;;;;;;;2.72;0.28;;;;;;;;;;4877761;29;20029;-82
2021/11/04 12:06:20;;;;;;;0.25;0.10;;;;;;;;;;4863552;29;20088;-81
2021/11/04 12:08:47;;;;;;;0.60;0.20;;;;;;;;;;4863066;29;20475;-81
2021/11/04 12:11:33;;;;;;;0.70;0.30;;;;;;;;;;4879910;29;20053;-82
2021/11/04 12:14:20;;;;;;;0.90;0.30;;;;;;;;;;4879886;29;20029;-83
2021/11/04 12:19:38;;;;;;;1.77;0.60;;;;;;;;;;4879759;29;20032;-82
2021/11/04 12:22:24;;;;;;;0.52;0.30;;;;;;;;;;4862962;29;20029;-83
2021/11/04 12:24:53;;;;;;;0.50;0.22;;;;;;;;;;4863009;29;20092;-82
2021/11/04 12:27:21;;;;;;;0.55;0.30;;;;;;;;;;4863234;29;20538;-81
2021/11/04 12:29:47;;;;;;;0.40;0.20;;;;;;;;;;4882783;29;20049;-82
2021/11/04 12:32:14;;;;;;;0.90;0.30;;;;;;;;;;4863026;29;20558;-81
2021/11/04 12:34:41;;;;;;;0.55;0.13;;;;;;;;;;4862846;29;20045;-81
2021/11/04 12:37:09;;;;;;;0.30;0.10;;;;;;;;;;4863024;29;20052;-82
2021/11/04 12:39:35;;;;;;;0.52;0.10;;;;;;;;;;4862805;29;20074;-83
2021/11/04 12:42:01;;;;;;;0.73;0.20;;;;;;;;;;4862848;29;20033;-82
2021/11/04 12:44:28;;;;;;;3.15;0.20;;;;;;;;;;4864819;29;20029;-82
2021/11/04 12:46:55;;;;;;;1.15;0.30;;;;;;;;;;4866414;29;20147;-81
2021/11/04 12:49:26;;;;;;;0.40;0.20;;;;;;;;;;4866636;29;20057;-81
2021/11/04 12:51:54;;;;;;;0.52;0.20;;;;;;;;;;4866538;29;20029;-81
2021/11/04 12:54:24;;;;;;;0.70;0.30;;;;;;;;;;4883052;29;20021;-81
2021/11/04 12:56:56;;;;;;;1.42;0.65;;;;;;;;;;4866454;29;20080;-80
2021/11/04 12:59:33;;;;;;;0.95;0.30;;;;;;;;;;4866160;29;20021;-81
2021/11/04 13:02:09;;;;;;;4.38;0.40;;;;;;;;;;4882991;29;20040;-80
2021/11/04 13:04:35;;;;;;;1.40;0.45;;;;;;;;;;4866067;29;20164;-81
2021/11/04 13:07:02;;;;;;;1.60;0.43;;;;;;;;;;4866024;29;20033;-81
2021/11/04 13:09:29;;;;;;;1.23;0.30;;;;;;;;;;4866276;29;20060;-81
2021/11/04 13:12:05;;;;;;;1.52;0.20;;;;;;;;;;4866241;29;20048;-81
2021/11/04 13:14:47;;;;;;;0.93;0.35;;;;;;;;;;4882795;29;20041;-80
2021/11/04 13:17:13;;;;;;;1.63;0.50;;;;;;;;;;4882657;29;20039;-81
2021/11/04 13:19:40;;;;;;;1.15;0.30;;;;;;;;;;4866031;29;20497;-81
2021/11/04 13:22:06;;;;;;;1.40;0.30;;;;;;;;;;4866103;29;20033;-82
2021/11/04 13:24:33;;;;;;;0.70;0.30;;;;;;;;;;4882464;29;20108;-81
2021/11/04 13:27:01;;;;;;;2.28;0.20;;;;;;;;;;4883045;29;20058;-81
2021/11/04 13:29:46;;;;;;;0.85;0.38;;;;;;;;;;4866210;29;20116;-82
2021/11/04 13:32:12;;;;;;;0.85;0.30;;;;;;;;;;4865753;29;20025;-82
2021/11/04 13:34:38;;;;;;;0.63;0.30;;;;;;;;;;4865679;29;20043;-82
2021/11/04 13:37:21;;;;;;;0.57;0.28;;;;;;;;;;4866045;29;20029;-82
2021/11/04 13:39:48;;;;;;;0.40;0.15;;;;;;;;;;4882578;29;20423;-81
2021/11/04 13:42:24;;;;;;;1.02;0.43;;;;;;;;;;4866150;29;20112;-81
2021/11/04 13:44:51;;;;;;;0.57;0.20;;;;;;;;;;4865624;29;20037;-81
2021/11/04 13:47:31;;;;;;;0.30;0.20;;;;;;;;;;4889233;29;20052;-81
2021/11/04 13:49:57;;;;;;;0.70;0.35;;;;;;;;;;4883835;29;20545;-81
2021/11/04 13:52:25;;;;;;;0.47;0.20;;;;;;;;;;4883936;29;20382;-82
2021/11/04 13:54:51;;;;;;;1.63;0.38;;;;;;;;;;4883757;29;20043;-81
2021/11/04 13:57:17;;;;;;;0.77;0.30;;;;;;;;;;4883531;29;20069;-81
2021/11/04 13:59:44;;;;;;;2.10;0.20;;;;;;;;;;4900817;29;20075;-81
2021/11/04 14:02:12;;;;;;;0.68;0.30;;;;;;;;;;4883908;29;20033;-82
2021/11/04 14:04:57;;;;;;;0.75;0.25;;;;;;;;;;4872848;29;20033;-80
2021/11/04 14:07:27;;;;;;;1.25;0.30;;;;;;;;;;4881991;29;20081;-81
2021/11/04 14:10:00;;;;;;;0.82;0.30;;;;;;;;;;4865228;29;20025;-80
2021/11/04 14:12:33;;;;;;;1.35;0.40;;;;;;;;;;4865200;29;20021;-81
2021/11/04 14:15:25;;;;;;;0.85;0.40;;;;;;;;;;4864978;29;20045;-80
2021/11/04 14:17:53;;;;;;;0.55;0.28;;;;;;;;;;4861691;29;20109;-80
2021/11/04 14:20:21;;;;;;;0.85;0.30;;;;;;;;;;4881521;29;20025;-80
2021/11/04 14:22:47;;;;;;;6.53;0.40;;;;;;;;;;4864781;29;20060;-80
2021/11/04 14:25:14;;;;;;;1.15;0.45;;;;;;;;;;4881516;29;20037;-81
2021/11/04 14:27:59;;;;;;;0.85;0.30;;;;;;;;;;4864955;29;20398;-81
2021/11/04 14:30:26;;;;;;;0.80;0.38;;;;;;;;;;4864930;29;20033;-81
2021/11/04 14:32:52;;;;;;;0.93;0.30;;;;;;;;;;4864658;29;20125;-81
2021/11/04 14:35:19;;;;;;;4.30;0.40;;;;;;;;;;4864443;29;20135;-81
2021/11/04 14:37:45;;;;;;;2.28;0.40;;;;;;;;;;4864366;29;20036;-81
2021/11/04 14:40:11;;;;;;;4.05;0.85;;;;;;;;;;4864102;29;20029;-80
2021/11/04 14:42:38;;;;;;;1.17;0.68;;;;;;;;;;4864407;29;20036;-80
2021/11/04 14:45:05;;;;;;;1.23;0.40;;;;;;;;;;4881374;29;20025;-80
2021/11/04 14:47:31;;;;;;;1.65;0.60;;;;;;;;;;4864262;29;20136;-80
2021/11/04 14:49:57;;;;;;;1.52;0.30;;;;;;;;;;4881297;29;20061;-80
2021/11/04 14:52:23;;;;;;;0.80;0.20;;;;;;;;;;4864508;29;20025;-80
2021/11/04 14:54:50;;;;;;;2.78;0.60;;;;;;;;;;4864403;29;20878;-80
2021/11/04 14:57:16;;;;;;;0.60;0.30;;;;;;;;;;4864253;29;20116;-80
2021/11/04 14:59:42;;;;;;;0.50;0.20;;;;;;;;;;4864446;29;20029;-81
2021/11/04 15:02:08;;;;;;;1.08;0.47;;;;;;;;;;4864416;29;20089;-81
2021/11/04 15:04:34;;;;;;;0.60;0.30;;;;;;;;;;4880752;29;20041;-80
2021/11/04 15:07:00;;;;;;;2.30;0.40;;;;;;;;;;4863511;29;20029;-83
2021/11/04 15:09:26;;;;;;;0.77;0.40;;;;;;;;;;4863733;29;20036;-83
2021/11/04 15:11:53;;;;;;;0.93;0.30;;;;;;;;;;4864334;29;20029;-83
2021/11/04 15:14:21;;;;;;;0.55;0.25;;;;;;;;;;4882017;29;20033;-83
2021/11/04 15:16:47;;;;;;;1.38;0.45;;;;;;;;;;4864462;29;20033;-83
2021/11/04 15:19:14;;;;;;;1.50;0.60;;;;;;;;;;4881027;29;20386;-83
2021/11/04 15:21:41;;;;;;;1.63;0.52;;;;;;;;;;4864414;29;20029;-81
2021/11/04 15:24:08;;;;;;;2.58;0.98;;;;;;;;;;4864255;29;20471;-83
2021/11/04 15:26:34;;;;;;;1.58;0.50;;;;;;;;;;4881517;29;20107;-83
2021/11/04 15:29:01;;;;;;;4.13;0.40;;;;;;;;;;4864405;29;20025;-84
2021/11/04 15:31:27;;;;;;;3.03;0.60;;;;;;;;;;4864304;29;20033;-83
2021/11/04 15:33:54;;;;;;;1.20;0.60;;;;;;;;;;4880945;29;20029;-83
2021/11/04 15:36:20;;;;;;;0.95;0.30;;;;;;;;;;4864163;29;20037;-84
2021/11/04 15:38:47;;;;;;;0.88;0.30;;;;;;;;;;4864229;29;20156;-83
2021/11/04 15:41:17;;;;;;;3.00;0.50;;;;;;;;;;4880859;29;20080;-86
2021/11/04 15:43:43;;;;;;;2.95;0.60;;;;;;;;;;4864496;29;20040;-84
2021/11/04 15:46:10;;;;;;;1.95;0.60;;;;;;;;;;4881470;29;20108;-84
2021/11/04 15:48:37;;;;;;;1.02;0.30;;;;;;;;;;4897482;29;20068;-84
2021/11/04 15:51:04;;;;;;;0.60;0.30;;;;;;;;;;4882439;29;20024;-82
2021/11/04 15:53:31;;;;;;;1.67;0.43;;;;;;;;;;4882522;29;20478;-83
2021/11/04 15:55:57;;;;;;;1.38;0.50;;;;;;;;;;4882319;29;20032;-83
2021/11/04 15:58:23;;;;;;;3.88;0.68;;;;;;;;;;4899537;29;20047;-82
2021/11/04 16:00:50;;;;;;;0.95;0.32;;;;;;;;;;4882616;29;20181;-81
2021/11/04 16:03:17;;;;;;;1.67;0.43;;;;;;;;;;4883450;29;20470;-84
2021/11/04 16:05:43;;;;;;;1.08;0.40;;;;;;;;;;4882416;29;20033;-84
2021/11/04 16:08:10;;;;;;;3.33;0.40;;;;;;;;;;4882166;29;20028;-84
2021/11/04 16:10:38;;;;;;;2.40;0.43;;;;;;;;;;4899484;29;20104;-84
2021/11/04 16:13:04;;;;;;;2.47;0.68;;;;;;;;;;4882438;29;20132;-84
2021/11/04 16:15:30;;;;;;;0.80;0.30;;;;;;;;;;4898841;29;20111;-84
2021/11/04 16:17:56;;;;;;;0.65;0.30;;;;;;;;;;4899461;29;20024;-84
2021/11/04 16:20:23;;;;;;;1.45;0.20;;;;;;;;;;4881800;29;20032;-84
2021/11/04 16:22:49;;;;;;;0.93;0.40;;;;;;;;;;4899081;29;20084;-86
2021/11/04 16:25:16;;;;;;;1.48;0.50;;;;;;;;;;4899595;29;20478;-84
2021/11/04 16:27:42;;;;;;;1.50;0.50;;;;;;;;;;4899122;29;20039;-84
2021/11/04 16:30:08;;;;;;;1.30;0.60;;;;;;;;;;4882647;29;20037;-84
2021/11/04 16:32:35;;;;;;;2.20;0.50;;;;;;;;;;4882971;29;20037;-84
2021/11/04 16:35:01;;;;;;;1.33;0.60;;;;;;;;;;4882274;29;20047;-83
2021/11/04 16:37:30;;;;;;;1.10;0.40;;;;;;;;;;4881925;29;20429;-82
2021/11/04 16:39:57;;;;;;;0.98;0.30;;;;;;;;;;4881785;29;20061;-82
2021/11/04 16:42:23;;;;;;;0.85;0.25;;;;;;;;;;4881856;29;20088;-84
2021/11/04 16:44:50;;;;;;;2.30;0.50;;;;;;;;;;4881729;29;20036;-81
2021/11/04 16:47:18;;;;;;;1.50;0.68;;;;;;;;;;4875531;29;20144;-82
2021/11/04 16:49:44;;;;;;;1.50;0.55;;;;;;;;;;4863127;29;20055;-83
2021/11/04 16:52:10;;;;;;;1.38;0.45;;;;;;;;;;4865319;29;20036;-85
2021/11/04 16:54:37;;;;;;;1.45;0.57;;;;;;;;;;4863200;29;20064;-84
2021/11/04 16:57:03;;;;;;;4.47;0.50;;;;;;;;;;4879811;29;20049;-84
2021/11/04 16:59:29;;;;;;;1.23;0.40;;;;;;;;;;4863194;29;20025;-84
2021/11/04 17:01:55;;;;;;;0.43;0.22;;;;;;;;;;4863333;29;20033;-84
2021/11/04 17:04:22;;;;;;;0.77;0.32;;;;;;;;;;4863519;29;20126;-84
2021/11/04 17:06:48;;;;;;;1.10;0.50;;;;;;;;;;4863574;29;20044;-85
2021/11/04 17:09:14;;;;;;;1.65;0.60;;;;;;;;;;4863123;29;20022;-85
2021/11/04 17:11:42;;;;;;;1.30;0.60;;;;;;;;;;4863505;29;20043;-83
2021/11/04 17:14:09;;;;;;;1.92;0.73;;;;;;;;;;4862916;29;20052;-83
2021/11/04 17:16:37;;;;;;;2.72;0.50;;;;;;;;;;4863187;29;20041;-83
2021/11/04 17:19:03;;;;;;;1.17;0.60;;;;;;;;;;4863272;29;20029;-84
2021/11/04 17:21:30;;;;;;;1.23;0.30;;;;;;;;;;4863081;29;20035;-84
2021/11/04 17:23:56;;;;;;;3.60;0.35;;;;;;;;;;4863267;29;20038;-83